Kington, United Kingdom
Current Conditions -  °F | °C
As of 5:20 PM on Tuesday 21 Oct 2014 (Local Time) from EGBJ Reporting Station
Rain Showers Rain Showers  
Wind Chill:   Ceiling: Unl
Heat Index:   Visibility: 6mi
Dew Point:   Wind: 10mph
Humidity: 82%   Direction: 290°WNW
Pressure: 29.94"   Gusts: 22mph
Location:  52.21°N, 3.03°W
Report Text: EGBJ 211620Z 29009G19KT 9999 VCSH SCT030CB 09/06 Q1014
Loading
Personal Weather Stations






























Interactive Weather Map
Tropical Storm Tracking
New forecast layout! Learn more

10-Day Weather Forecast

Advertisements
Track Severe Weather on mobile